sensor_id;sensor_type;location;lat;lon;timestamp;temperature;humidity
48043;DHT22;33988;47.992;8.820;2023-10-13T00:00:40;21.90;45.50
48043;DHT22;33988;47.992;8.820;2023-10-13T00:03:10;21.90;45.50
48043;DHT22;33988;47.992;8.820;2023-10-13T00:05:47;21.80;45.50
48043;DHT22;33988;47.992;8.820;2023-10-13T00:08:19;21.80;45.60
48043;DHT22;33988;47.992;8.820;2023-10-13T00:10:47;21.80;45.70
48043;DHT22;33988;47.992;8.820;2023-10-13T00:13:14;21.70;45.70
48043;DHT22;33988;47.992;8.820;2023-10-13T00:15:44;21.70;45.80
48043;DHT22;33988;47.992;8.820;2023-10-13T00:18:27;21.60;45.80
48043;DHT22;33988;47.992;8.820;2023-10-13T00:21:02;21.60;45.90
48043;DHT22;33988;47.992;8.820;2023-10-13T00:23:48;21.60;46.70
48043;DHT22;33988;47.992;8.820;2023-10-13T00:26:22;21.60;46.10
48043;DHT22;33988;47.992;8.820;2023-10-13T00:28:51;21.50;46.20
48043;DHT22;33988;47.992;8.820;2023-10-13T00:31:28;21.50;46.20
48043;DHT22;33988;47.992;8.820;2023-10-13T00:34:03;21.50;46.20
48043;DHT22;33988;47.992;8.820;2023-10-13T00:36:46;21.50;46.30
48043;DHT22;33988;47.992;8.820;2023-10-13T00:39:37;21.50;46.30
48043;DHT22;33988;47.992;8.820;2023-10-13T00:42:07;21.40;46.20
48043;DHT22;33988;47.992;8.820;2023-10-13T00:44:35;21.40;46.30
48043;DHT22;33988;47.992;8.820;2023-10-13T00:47:09;21.40;46.30
48043;DHT22;33988;47.992;8.820;2023-10-13T00:49:37;21.40;46.40
48043;DHT22;33988;47.992;8.820;2023-10-13T00:52:07;21.30;46.40
48043;DHT22;33988;47.992;8.820;2023-10-13T00:54:37;21.30;46.40
48043;DHT22;33988;47.992;8.820;2023-10-13T00:57:05;21.30;46.40
48043;DHT22;33988;47.992;8.820;2023-10-13T00:59:41;21.30;46.40
48043;DHT22;33988;47.992;8.820;2023-10-13T01:02:13;21.30;46.40
48043;DHT22;33988;47.992;8.820;2023-10-13T01:04:58;21.30;46.40
48043;DHT22;33988;47.992;8.820;2023-10-13T01:07:25;21.20;46.40
48043;DHT22;33988;47.992;8.820;2023-10-13T01:09:52;21.20;46.50
48043;DHT22;33988;47.992;8.820;2023-10-13T01:12:22;21.20;46.50
48043;DHT22;33988;47.992;8.820;2023-10-13T01:14:51;21.20;46.60
48043;DHT22;33988;47.992;8.820;2023-10-13T01:17:36;21.10;46.50
48043;DHT22;33988;47.992;8.820;2023-10-13T01:20:04;21.10;46.50
48043;DHT22;33988;47.992;8.820;2023-10-13T01:22:32;21.00;46.50
48043;DHT22;33988;47.992;8.820;2023-10-13T01:25:03;21.00;46.50
48043;DHT22;33988;47.992;8.820;2023-10-13T01:27:37;21.00;46.60
48043;DHT22;33988;47.992;8.820;2023-10-13T01:30:07;20.70;46.70
48043;DHT22;33988;47.992;8.820;2023-10-13T01:32:40;20.90;46.50
48043;DHT22;33988;47.992;8.820;2023-10-13T01:35:12;20.90;47.20
48043;DHT22;33988;47.992;8.820;2023-10-13T01:37:41;20.90;46.50
48043;DHT22;33988;47.992;8.820;2023-10-13T01:40:12;20.80;46.50
48043;DHT22;33988;47.992;8.820;2023-10-13T01:42:43;20.80;46.60
48043;DHT22;33988;47.992;8.820;2023-10-13T01:45:12;20.70;46.60
48043;DHT22;33988;47.992;8.820;2023-10-13T01:47:41;20.70;46.80
48043;DHT22;33988;47.992;8.820;2023-10-13T01:50:10;20.70;46.80
48043;DHT22;33988;47.992;8.820;2023-10-13T01:52:56;20.70;46.80
48043;DHT22;33988;47.992;8.820;2023-10-13T01:55:53;20.60;46.80
48043;DHT22;33988;47.992;8.820;2023-10-13T01:58:23;20.60;46.80
48043;DHT22;33988;47.992;8.820;2023-10-13T02:00:57;20.60;46.90
48043;DHT22;33988;47.992;8.820;2023-10-13T02:03:26;20.30;47.00
48043;DHT22;33988;47.992;8.820;2023-10-13T02:05:56;20.50;46.80
48043;DHT22;33988;47.992;8.820;2023-10-13T02:08:30;20.50;46.80
48043;DHT22;33988;47.992;8.820;2023-10-13T02:11:06;20.50;46.90
48043;DHT22;33988;47.992;8.820;2023-10-13T02:13:36;20.40;46.90
48043;DHT22;33988;47.992;8.820;2023-10-13T02:16:15;20.40;46.90
48043;DHT22;33988;47.992;8.820;2023-10-13T02:18:46;20.40;47.00
48043;DHT22;33988;47.992;8.820;2023-10-13T02:21:18;20.30;47.00
48043;DHT22;33988;47.992;8.820;2023-10-13T02:23:45;20.30;47.00
48043;DHT22;33988;47.992;8.820;2023-10-13T02:26:26;20.30;47.10
48043;DHT22;33988;47.992;8.820;2023-10-13T02:29:05;20.00;47.20
48043;DHT22;33988;47.992;8.820;2023-10-13T02:31:41;20.20;47.10
48043;DHT22;33988;47.992;8.820;2023-10-13T02:34:09;20.20;47.10
48043;DHT22;33988;47.992;8.820;2023-10-13T02:36:40;20.20;47.10
48043;DHT22;33988;47.992;8.820;2023-10-13T02:39:16;20.10;47.10
48043;DHT22;33988;47.992;8.820;2023-10-13T02:41:43;20.10;47.20
48043;DHT22;33988;47.992;8.820;2023-10-13T02:44:15;20.10;47.20
48043;DHT22;33988;47.992;8.820;2023-10-13T02:46:57;19.80;47.30
48043;DHT22;33988;47.992;8.820;2023-10-13T02:49:27;20.00;47.20
48043;DHT22;33988;47.992;8.820;2023-10-13T02:51:58;20.00;47.20
48043;DHT22;33988;47.992;8.820;2023-10-13T02:54:32;20.00;47.30
48043;DHT22;33988;47.992;8.820;2023-10-13T02:57:06;20.00;47.30
48043;DHT22;33988;47.992;8.820;2023-10-13T02:59:35;19.90;47.30
48043;DHT22;33988;47.992;8.820;2023-10-13T03:02:10;19.90;47.30
48043;DHT22;33988;47.992;8.820;2023-10-13T03:04:57;19.80;47.30
48043;DHT22;33988;47.992;8.820;2023-10-13T03:07:36;19.80;47.40
48043;DHT22;33988;47.992;8.820;2023-10-13T03:10:04;19.80;47.40
48043;DHT22;33988;47.992;8.820;2023-10-13T03:12:40;19.80;47.50
48043;DHT22;33988;47.992;8.820;2023-10-13T03:15:14;19.70;47.40
48043;DHT22;33988;47.992;8.820;2023-10-13T03:17:49;19.70;47.50
48043;DHT22;33988;47.992;8.820;2023-10-13T03:20:17;19.70;47.50
48043;DHT22;33988;47.992;8.820;2023-10-13T03:22:54;19.60;47.60
48043;DHT22;33988;47.992;8.820;2023-10-13T03:25:21;19.60;47.60
48043;DHT22;33988;47.992;8.820;2023-10-13T03:27:56;19.60;47.60
48043;DHT22;33988;47.992;8.820;2023-10-13T03:30:27;19.60;47.60
48043;DHT22;33988;47.992;8.820;2023-10-13T03:33:06;19.50;47.60
48043;DHT22;33988;47.992;8.820;2023-10-13T03:35:37;19.50;47.70
48043;DHT22;33988;47.992;8.820;2023-10-13T03:38:08;19.50;47.70
48043;DHT22;33988;47.992;8.820;2023-10-13T03:40:55;19.40;47.70
48043;DHT22;33988;47.992;8.820;2023-10-13T03:43:23;19.40;47.80
48043;DHT22;33988;47.992;8.820;2023-10-13T03:45:51;19.40;47.80
48043;DHT22;33988;47.992;8.820;2023-10-13T03:48:28;19.40;47.90
48043;DHT22;33988;47.992;8.820;2023-10-13T03:51:00;19.40;47.90
48043;DHT22;33988;47.992;8.820;2023-10-13T03:53:34;19.30;48.00
48043;DHT22;33988;47.992;8.820;2023-10-13T03:56:06;19.30;48.00
48043;DHT22;33988;47.992;8.820;2023-10-13T03:58:41;19.20;48.00
48043;DHT22;33988;47.992;8.820;2023-10-13T04:01:15;19.30;48.10
48043;DHT22;33988;47.992;8.820;2023-10-13T04:03:48;19.20;48.00
48043;DHT22;33988;47.992;8.820;2023-10-13T04:06:31;19.20;48.00
48043;DHT22;33988;47.992;8.820;2023-10-13T04:09:22;19.20;48.00
48043;DHT22;33988;47.992;8.820;2023-10-13T04:12:09;19.20;48.00
48043;DHT22;33988;47.992;8.820;2023-10-13T04:14:43;19.10;48.00
48043;DHT22;33988;47.992;8.820;2023-10-13T04:17:29;19.10;48.00
48043;DHT22;33988;47.992;8.820;2023-10-13T04:20:02;19.10;48.00
48043;DHT22;33988;47.992;8.820;2023-10-13T04:28:09;19.00;48.20
48043;DHT22;33988;47.992;8.820;2023-10-13T04:30:48;19.00;48.20
48043;DHT22;33988;47.992;8.820;2023-10-13T04:36:05;18.90;48.20
48043;DHT22;33988;47.992;8.820;2023-10-13T04:38:55;18.90;48.20
48043;DHT22;33988;47.992;8.820;2023-10-13T04:41:35;18.90;48.30
48043;DHT22;33988;47.992;8.820;2023-10-13T04:44:14;18.90;48.30
48043;DHT22;33988;47.992;8.820;2023-10-13T04:47:01;18.90;48.40
48043;DHT22;33988;47.992;8.820;2023-10-13T04:49:30;18.80;48.30
48043;DHT22;33988;47.992;8.820;2023-10-13T04:52:03;18.80;48.40
48043;DHT22;33988;47.992;8.820;2023-10-13T04:54:44;18.80;48.40
48043;DHT22;33988;47.992;8.820;2023-10-13T04:57:18;18.80;48.40
48043;DHT22;33988;47.992;8.820;2023-10-13T05:00:08;18.80;48.50
48043;DHT22;33988;47.992;8.820;2023-10-13T05:02:42;18.80;48.40
48043;DHT22;33988;47.992;8.820;2023-10-13T05:05:23;18.80;48.50
48043;DHT22;33988;47.992;8.820;2023-10-13T05:07:55;18.80;48.50
48043;DHT22;33988;47.992;8.820;2023-10-13T05:10:43;18.80;48.60
48043;DHT22;33988;47.992;8.820;2023-10-13T05:13:29;18.70;48.60
48043;DHT22;33988;47.992;8.820;2023-10-13T05:16:16;18.70;48.70
48043;DHT22;33988;47.992;8.820;2023-10-13T05:19:02;18.70;48.70
48043;DHT22;33988;47.992;8.820;2023-10-13T05:21:49;18.60;48.80
48043;DHT22;33988;47.992;8.820;2023-10-13T05:24:36;18.60;48.80
48043;DHT22;33988;47.992;8.820;2023-10-13T05:27:22;18.60;48.90
48043;DHT22;33988;47.992;8.820;2023-10-13T05:30:08;18.60;48.80
48043;DHT22;33988;47.992;8.820;2023-10-13T05:32:56;18.60;48.80
48043;DHT22;33988;47.992;8.820;2023-10-13T05:35:49;18.60;48.80
48043;DHT22;33988;47.992;8.820;2023-10-13T05:38:34;18.50;48.80
48043;DHT22;33988;47.992;8.820;2023-10-13T05:41:23;18.50;48.80
48043;DHT22;33988;47.992;8.820;2023-10-13T05:44:11;18.50;48.80
48043;DHT22;33988;47.992;8.820;2023-10-13T05:46:56;18.50;48.80
48043;DHT22;33988;47.992;8.820;2023-10-13T05:49:42;18.50;48.80
48043;DHT22;33988;47.992;8.820;2023-10-13T05:52:17;18.50;48.90
48043;DHT22;33988;47.992;8.820;2023-10-13T05:55:06;18.50;48.90
48043;DHT22;33988;47.992;8.820;2023-10-13T05:57:55;18.50;49.00
48043;DHT22;33988;47.992;8.820;2023-10-13T06:00:41;18.50;48.90
48043;DHT22;33988;47.992;8.820;2023-10-13T06:03:29;18.50;49.00
48043;DHT22;33988;47.992;8.820;2023-10-13T06:06:14;18.40;48.90
48043;DHT22;33988;47.992;8.820;2023-10-13T06:09:02;18.40;49.00
48043;DHT22;33988;47.992;8.820;2023-10-13T06:11:48;18.40;49.00
48043;DHT22;33988;47.992;8.820;2023-10-13T06:14:34;18.40;49.10
48043;DHT22;33988;47.992;8.820;2023-10-13T06:17:19;18.40;49.10
48043;DHT22;33988;47.992;8.820;2023-10-13T06:20:05;18.40;49.10
48043;DHT22;33988;47.992;8.820;2023-10-13T06:22:52;18.40;49.10
48043;DHT22;33988;47.992;8.820;2023-10-13T06:25:38;18.40;49.10
48043;DHT22;33988;47.992;8.820;2023-10-13T06:28:26;18.40;49.20
48043;DHT22;33988;47.992;8.820;2023-10-13T06:31:12;18.40;49.20
48043;DHT22;33988;47.992;8.820;2023-10-13T06:33:51;18.40;49.20
48043;DHT22;33988;47.992;8.820;2023-10-13T06:36:22;18.40;49.30
48043;DHT22;33988;47.992;8.820;2023-10-13T06:38:52;18.40;49.30
48043;DHT22;33988;47.992;8.820;2023-10-13T06:41:22;18.40;49.20
48043;DHT22;33988;47.992;8.820;2023-10-13T06:43:58;18.40;49.20
48043;DHT22;33988;47.992;8.820;2023-10-13T06:46:34;18.40;49.90
48043;DHT22;33988;47.992;8.820;2023-10-13T06:49:04;18.40;49.30
48043;DHT22;33988;47.992;8.820;2023-10-13T06:51:35;18.40;49.40
48043;DHT22;33988;47.992;8.820;2023-10-13T06:54:06;18.40;49.40
48043;DHT22;33988;47.992;8.820;2023-10-13T06:56:49;18.40;49.40
48043;DHT22;33988;47.992;8.820;2023-10-13T06:59:20;18.40;49.50
48043;DHT22;33988;47.992;8.820;2023-10-13T07:01:53;18.40;49.60
48043;DHT22;33988;47.992;8.820;2023-10-13T07:04:20;18.40;49.60
48043;DHT22;33988;47.992;8.820;2023-10-13T07:06:48;18.40;49.60
48043;DHT22;33988;47.992;8.820;2023-10-13T07:09:17;18.50;49.70
48043;DHT22;33988;47.992;8.820;2023-10-13T07:12:03;18.50;49.70
48043;DHT22;33988;47.992;8.820;2023-10-13T07:14:34;18.50;49.80
48043;DHT22;33988;47.992;8.820;2023-10-13T07:17:04;18.50;49.90
48043;DHT22;33988;47.992;8.820;2023-10-13T07:19:35;18.60;50.00
48043;DHT22;33988;47.992;8.820;2023-10-13T07:22:19;18.60;50.10
48043;DHT22;33988;47.992;8.820;2023-10-13T07:24:48;18.60;50.10
48043;DHT22;33988;47.992;8.820;2023-10-13T07:27:22;18.60;50.20
48043;DHT22;33988;47.992;8.820;2023-10-13T07:29:57;18.70;50.30
48043;DHT22;33988;47.992;8.820;2023-10-13T07:32:41;18.70;50.40
48043;DHT22;33988;47.992;8.820;2023-10-13T07:35:19;18.80;50.50
48043;DHT22;33988;47.992;8.820;2023-10-13T07:37:51;18.90;50.70
48043;DHT22;33988;47.992;8.820;2023-10-13T07:40:22;18.90;50.80
48043;DHT22;33988;47.992;8.820;2023-10-13T07:42:56;19.10;51.10
48043;DHT22;33988;47.992;8.820;2023-10-13T07:45:39;19.20;51.50
48043;DHT22;33988;47.992;8.820;2023-10-13T07:48:11;19.40;51.80
48043;DHT22;33988;47.992;8.820;2023-10-13T07:50:43;19.60;52.10
48043;DHT22;33988;47.992;8.820;2023-10-13T07:53:15;20.00;52.30
48043;DHT22;33988;47.992;8.820;2023-10-13T07:55:51;20.30;52.30
48043;DHT22;33988;47.992;8.820;2023-10-13T07:58:32;20.60;52.10
48043;DHT22;33988;47.992;8.820;2023-10-13T08:01:02;20.90;51.80
48043;DHT22;33988;47.992;8.820;2023-10-13T08:03:36;21.30;51.60
48043;DHT22;33988;47.992;8.820;2023-10-13T08:06:16;21.70;51.30
48043;DHT22;33988;47.992;8.820;2023-10-13T08:08:48;22.10;50.80
48043;DHT22;33988;47.992;8.820;2023-10-13T08:11:21;22.40;50.30
48043;DHT22;33988;47.992;8.820;2023-10-13T08:13:51;22.80;49.80
48043;DHT22;33988;47.992;8.820;2023-10-13T08:17:00;23.10;49.30
48043;DHT22;33988;47.992;8.820;2023-10-13T08:19:29;23.40;48.60
48043;DHT22;33988;47.992;8.820;2023-10-13T08:22:08;23.80;48.20
48043;DHT22;33988;47.992;8.820;2023-10-13T08:24:41;24.00;47.70
48043;DHT22;33988;47.992;8.820;2023-10-13T08:27:08;24.20;47.30
48043;DHT22;33988;47.992;8.820;2023-10-13T08:29:46;24.40;47.00
48043;DHT22;33988;47.992;8.820;2023-10-13T08:32:23;24.60;46.60
48043;DHT22;33988;47.992;8.820;2023-10-13T08:34:54;24.40;46.70
48043;DHT22;33988;47.992;8.820;2023-10-13T08:37:22;24.80;46.30
48043;DHT22;33988;47.992;8.820;2023-10-13T08:39:53;24.90;45.90
48043;DHT22;33988;47.992;8.820;2023-10-13T08:42:51;24.90;45.70
48043;DHT22;33988;47.992;8.820;2023-10-13T08:45:31;25.00;45.60
48043;DHT22;33988;47.992;8.820;2023-10-13T08:48:03;25.00;45.50
48043;DHT22;33988;47.992;8.820;2023-10-13T08:50:35;25.00;45.50
48043;DHT22;33988;47.992;8.820;2023-10-13T08:53:31;25.00;45.60
48043;DHT22;33988;47.992;8.820;2023-10-13T08:56:12;25.00;45.70
48043;DHT22;33988;47.992;8.820;2023-10-13T08:58:46;25.00;45.80
48043;DHT22;33988;47.992;8.820;2023-10-13T09:04:17;25.10;45.60
48043;DHT22;33988;47.992;8.820;2023-10-13T09:07:05;25.20;45.50
48043;DHT22;33988;47.992;8.820;2023-10-13T09:09:52;25.10;45.60
48043;DHT22;33988;47.992;8.820;2023-10-13T09:12:25;25.10;45.40
48043;DHT22;33988;47.992;8.820;2023-10-13T09:17:42;25.20;45.50
48043;DHT22;33988;47.992;8.820;2023-10-13T09:20:31;25.20;45.70
48043;DHT22;33988;47.992;8.820;2023-10-13T09:23:14;24.90;45.80
48043;DHT22;33988;47.992;8.820;2023-10-13T09:25:53;25.10;45.60
48043;DHT22;33988;47.992;8.820;2023-10-13T09:28:28;25.00;45.10
48043;DHT22;33988;47.992;8.820;2023-10-13T09:30:58;25.00;45.20
48043;DHT22;33988;47.992;8.820;2023-10-13T09:33:27;25.00;45.30
48043;DHT22;33988;47.992;8.820;2023-10-13T09:36:14;25.00;45.40
48043;DHT22;33988;47.992;8.820;2023-10-13T09:38:43;24.90;45.60
48043;DHT22;33988;47.992;8.820;2023-10-13T09:41:37;25.00;45.60
48043;DHT22;33988;47.992;8.820;2023-10-13T09:44:07;24.90;45.50
48043;DHT22;33988;47.992;8.820;2023-10-13T09:46:40;24.90;45.20
48043;DHT22;33988;47.992;8.820;2023-10-13T09:49:14;24.90;45.00
48043;DHT22;33988;47.992;8.820;2023-10-13T09:52:04;24.80;44.80
48043;DHT22;33988;47.992;8.820;2023-10-13T09:54:38;24.80;44.70
48043;DHT22;33988;47.992;8.820;2023-10-13T09:57:15;24.80;44.50
48043;DHT22;33988;47.992;8.820;2023-10-13T09:59:55;24.60;44.80
48043;DHT22;33988;47.992;8.820;2023-10-13T10:02:35;24.80;44.50
48043;DHT22;33988;47.992;8.820;2023-10-13T10:05:10;24.80;44.50
48043;DHT22;33988;47.992;8.820;2023-10-13T10:07:57;24.80;44.30
48043;DHT22;33988;47.992;8.820;2023-10-13T10:11:03;24.90;44.30
48043;DHT22;33988;47.992;8.820;2023-10-13T10:13:47;24.90;43.80
48043;DHT22;33988;47.992;8.820;2023-10-13T10:16:50;25.00;43.90
48043;DHT22;33988;47.992;8.820;2023-10-13T10:19:50;25.00;43.20
48043;DHT22;33988;47.992;8.820;2023-10-13T10:22:30;25.10;43.10
48043;DHT22;33988;47.992;8.820;2023-10-13T10:25:03;25.20;43.20
48043;DHT22;33988;47.992;8.820;2023-10-13T10:27:43;25.30;43.00
48043;DHT22;33988;47.992;8.820;2023-10-13T10:30:12;25.40;42.90
48043;DHT22;33988;47.992;8.820;2023-10-13T10:32:57;25.50;42.90
48043;DHT22;33988;47.992;8.820;2023-10-13T10:35:28;25.60;42.70
48043;DHT22;33988;47.992;8.820;2023-10-13T10:38:16;25.70;42.70
48043;DHT22;33988;47.992;8.820;2023-10-13T10:43:37;25.90;42.20
48043;DHT22;33988;47.992;8.820;2023-10-13T10:46:26;26.00;42.10
48043;DHT22;33988;47.992;8.820;2023-10-13T10:49:05;26.10;41.90
48043;DHT22;33988;47.992;8.820;2023-10-13T10:51:33;26.20;41.70
48043;DHT22;33988;47.992;8.820;2023-10-13T10:54:19;26.30;41.40
48043;DHT22;33988;47.992;8.820;2023-10-13T10:56:49;26.40;41.10
48043;DHT22;33988;47.992;8.820;2023-10-13T10:59:19;26.50;41.20
48043;DHT22;33988;47.992;8.820;2023-10-13T11:01:48;26.60;41.00
48043;DHT22;33988;47.992;8.820;2023-10-13T11:04:20;26.70;40.50
48043;DHT22;33988;47.992;8.820;2023-10-13T11:06:51;26.80;40.40
48043;DHT22;33988;47.992;8.820;2023-10-13T11:09:26;26.90;40.20
48043;DHT22;33988;47.992;8.820;2023-10-13T11:11:54;27.00;39.80
48043;DHT22;33988;47.992;8.820;2023-10-13T11:14:28;27.10;40.00
48043;DHT22;33988;47.992;8.820;2023-10-13T11:16:59;27.20;39.70
48043;DHT22;33988;47.992;8.820;2023-10-13T11:19:38;27.30;39.60
48043;DHT22;33988;47.992;8.820;2023-10-13T11:22:17;27.40;39.30
48043;DHT22;33988;47.992;8.820;2023-10-13T11:24:56;27.50;38.60
48043;DHT22;33988;47.992;8.820;2023-10-13T11:27:31;27.60;38.70
48043;DHT22;33988;47.992;8.820;2023-10-13T11:30:19;27.70;38.40
48043;DHT22;33988;47.992;8.820;2023-10-13T11:33:17;27.80;38.20
48043;DHT22;33988;47.992;8.820;2023-10-13T11:35:48;27.90;37.40
48043;DHT22;33988;47.992;8.820;2023-10-13T11:38:16;28.00;37.70
48043;DHT22;33988;47.992;8.820;2023-10-13T11:41:07;28.10;37.70
48043;DHT22;33988;47.992;8.820;2023-10-13T11:43:50;28.20;36.90
48043;DHT22;33988;47.992;8.820;2023-10-13T11:46:23;28.30;37.20
48043;DHT22;33988;47.992;8.820;2023-10-13T11:49:07;28.40;37.10
48043;DHT22;33988;47.992;8.820;2023-10-13T11:52:00;28.40;37.00
48043;DHT22;33988;47.992;8.820;2023-10-13T11:54:43;28.60;37.10
48043;DHT22;33988;47.992;8.820;2023-10-13T11:57:13;28.60;37.00
48043;DHT22;33988;47.992;8.820;2023-10-13T11:59:46;28.70;37.10
48043;DHT22;33988;47.992;8.820;2023-10-13T12:02:21;28.70;36.70
48043;DHT22;33988;47.992;8.820;2023-10-13T12:04:54;28.80;36.40
48043;DHT22;33988;47.992;8.820;2023-10-13T12:07:24;28.80;36.40
48043;DHT22;33988;47.992;8.820;2023-10-13T12:10:12;28.90;36.30
48043;DHT22;33988;47.992;8.820;2023-10-13T12:12:47;28.90;36.10
48043;DHT22;33988;47.992;8.820;2023-10-13T12:15:22;29.00;35.90
48043;DHT22;33988;47.992;8.820;2023-10-13T12:17:53;29.00;35.60
48043;DHT22;33988;47.992;8.820;2023-10-13T12:20:26;29.10;35.60
48043;DHT22;33988;47.992;8.820;2023-10-13T12:23:02;29.10;35.70
48043;DHT22;33988;47.992;8.820;2023-10-13T12:25:47;29.10;35.40
48043;DHT22;33988;47.992;8.820;2023-10-13T12:28:26;29.20;35.50
48043;DHT22;33988;47.992;8.820;2023-10-13T12:31:02;29.20;35.30
48043;DHT22;33988;47.992;8.820;2023-10-13T12:33:32;29.30;35.10
48043;DHT22;33988;47.992;8.820;2023-10-13T12:36:07;29.30;35.00
48043;DHT22;33988;47.992;8.820;2023-10-13T12:38:53;29.40;35.10
48043;DHT22;33988;47.992;8.820;2023-10-13T12:41:35;29.40;35.50
48043;DHT22;33988;47.992;8.820;2023-10-13T12:44:25;29.40;35.10
48043;DHT22;33988;47.992;8.820;2023-10-13T12:47:14;29.40;35.10
48043;DHT22;33988;47.992;8.820;2023-10-13T12:50:03;29.50;35.40
48043;DHT22;33988;47.992;8.820;2023-10-13T12:52:50;29.50;35.00
48043;DHT22;33988;47.992;8.820;2023-10-13T12:55:20;29.50;34.90
48043;DHT22;33988;47.992;8.820;2023-10-13T12:57:51;29.60;35.10
48043;DHT22;33988;47.992;8.820;2023-10-13T13:00:18;29.60;34.70
48043;DHT22;33988;47.992;8.820;2023-10-13T13:02:51;29.60;34.70
48043;DHT22;33988;47.992;8.820;2023-10-13T13:05:22;29.60;34.50
48043;DHT22;33988;47.992;8.820;2023-10-13T13:07:57;29.60;34.60
48043;DHT22;33988;47.992;8.820;2023-10-13T13:10:25;29.70;34.50
48043;DHT22;33988;47.992;8.820;2023-10-13T13:13:08;29.70;34.30
48043;DHT22;33988;47.992;8.820;2023-10-13T13:15:37;29.70;34.20
48043;DHT22;33988;47.992;8.820;2023-10-13T13:18:06;29.70;34.30
48043;DHT22;33988;47.992;8.820;2023-10-13T13:20:39;29.80;34.20
48043;DHT22;33988;47.992;8.820;2023-10-13T13:23:09;29.80;34.20
48043;DHT22;33988;47.992;8.820;2023-10-13T13:25:45;29.80;34.20
48043;DHT22;33988;47.992;8.820;2023-10-13T13:28:12;29.80;34.00
48043;DHT22;33988;47.992;8.820;2023-10-13T13:30:41;29.90;34.00
48043;DHT22;33988;47.992;8.820;2023-10-13T13:33:08;29.90;33.80
48043;DHT22;33988;47.992;8.820;2023-10-13T13:35:40;29.90;33.90
48043;DHT22;33988;47.992;8.820;2023-10-13T13:38:10;29.90;33.80
48043;DHT22;33988;47.992;8.820;2023-10-13T13:40:43;29.90;34.40
48043;DHT22;33988;47.992;8.820;2023-10-13T13:43:18;29.90;33.90
48043;DHT22;33988;47.992;8.820;2023-10-13T13:46:05;29.90;33.90
48043;DHT22;33988;47.992;8.820;2023-10-13T13:48:39;29.80;33.60
48043;DHT22;33988;47.992;8.820;2023-10-13T13:51:10;29.80;33.50
48043;DHT22;33988;47.992;8.820;2023-10-13T13:53:46;29.80;33.40
48043;DHT22;33988;47.992;8.820;2023-10-13T13:56:15;29.80;33.60
48043;DHT22;33988;47.992;8.820;2023-10-13T13:58:46;29.80;33.60
48043;DHT22;33988;47.992;8.820;2023-10-13T14:01:14;29.80;33.50
48043;DHT22;33988;47.992;8.820;2023-10-13T14:03:48;29.70;33.30
48043;DHT22;33988;47.992;8.820;2023-10-13T14:06:21;29.70;33.10
48043;DHT22;33988;47.992;8.820;2023-10-13T14:08:51;29.70;33.20
48043;DHT22;33988;47.992;8.820;2023-10-13T14:11:24;29.70;33.00
48043;DHT22;33988;47.992;8.820;2023-10-13T14:14:14;29.60;32.80
48043;DHT22;33988;47.992;8.820;2023-10-13T14:17:07;29.60;32.80
48043;DHT22;33988;47.992;8.820;2023-10-13T14:19:39;29.50;32.90
48043;DHT22;33988;47.992;8.820;2023-10-13T14:22:14;29.50;32.70
48043;DHT22;33988;47.992;8.820;2023-10-13T14:24:41;29.40;32.60
48043;DHT22;33988;47.992;8.820;2023-10-13T14:27:14;29.40;32.70
48043;DHT22;33988;47.992;8.820;2023-10-13T14:29:50;29.30;32.70
48043;DHT22;33988;47.992;8.820;2023-10-13T14:32:20;29.30;32.80
48043;DHT22;33988;47.992;8.820;2023-10-13T14:34:51;29.30;32.70
48043;DHT22;33988;47.992;8.820;2023-10-13T14:37:22;29.20;32.60
48043;DHT22;33988;47.992;8.820;2023-10-13T14:39:59;29.20;32.60
48043;DHT22;33988;47.992;8.820;2023-10-13T14:42:28;29.10;32.70
48043;DHT22;33988;47.992;8.820;2023-10-13T14:45:02;29.10;32.60
48043;DHT22;33988;47.992;8.820;2023-10-13T14:47:42;29.10;32.60
48043;DHT22;33988;47.992;8.820;2023-10-13T14:50:13;29.00;32.40
48043;DHT22;33988;47.992;8.820;2023-10-13T14:52:49;29.00;32.50
48043;DHT22;33988;47.992;8.820;2023-10-13T14:55:18;29.00;32.40
48043;DHT22;33988;47.992;8.820;2023-10-13T14:57:49;28.90;32.50
48043;DHT22;33988;47.992;8.820;2023-10-13T15:00:19;28.90;32.50
48043;DHT22;33988;47.992;8.820;2023-10-13T15:02:53;28.80;32.40
48043;DHT22;33988;47.992;8.820;2023-10-13T15:05:21;28.90;32.60
48043;DHT22;33988;47.992;8.820;2023-10-13T15:07:57;28.80;32.70
48043;DHT22;33988;47.992;8.820;2023-10-13T15:10:25;28.80;32.60
48043;DHT22;33988;47.992;8.820;2023-10-13T15:12:55;28.80;32.70
48043;DHT22;33988;47.992;8.820;2023-10-13T15:15:22;28.70;32.50
48043;DHT22;33988;47.992;8.820;2023-10-13T15:17:50;28.70;32.70
48043;DHT22;33988;47.992;8.820;2023-10-13T15:20:17;28.70;32.50
48043;DHT22;33988;47.992;8.820;2023-10-13T15:22:45;28.70;32.60
48043;DHT22;33988;47.992;8.820;2023-10-13T15:25:19;28.70;32.30
48043;DHT22;33988;47.992;8.820;2023-10-13T15:27:59;28.60;32.10
48043;DHT22;33988;47.992;8.820;2023-10-13T15:30:33;28.60;32.00
48043;DHT22;33988;47.992;8.820;2023-10-13T15:33:22;28.60;32.00
48043;DHT22;33988;47.992;8.820;2023-10-13T15:35:52;28.30;32.70
48043;DHT22;33988;47.992;8.820;2023-10-13T15:38:19;28.50;32.30
48043;DHT22;33988;47.992;8.820;2023-10-13T15:40:51;28.50;32.20
48043;DHT22;33988;47.992;8.820;2023-10-13T15:43:22;28.50;32.20
48043;DHT22;33988;47.992;8.820;2023-10-13T15:45:49;28.40;32.40
48043;DHT22;33988;47.992;8.820;2023-10-13T15:48:16;28.40;32.20
48043;DHT22;33988;47.992;8.820;2023-10-13T15:50:46;28.40;32.50
48043;DHT22;33988;47.992;8.820;2023-10-13T15:53:16;28.40;32.80
48043;DHT22;33988;47.992;8.820;2023-10-13T15:55:44;28.30;32.80
48043;DHT22;33988;47.992;8.820;2023-10-13T15:58:13;28.30;32.70
48043;DHT22;33988;47.992;8.820;2023-10-13T16:00:42;28.30;32.90
48043;DHT22;33988;47.992;8.820;2023-10-13T16:03:10;28.30;32.90
48043;DHT22;33988;47.992;8.820;2023-10-13T16:05:40;28.30;33.10
48043;DHT22;33988;47.992;8.820;2023-10-13T16:08:12;28.20;32.90
48043;DHT22;33988;47.992;8.820;2023-10-13T16:10:40;28.20;33.00
48043;DHT22;33988;47.992;8.820;2023-10-13T16:13:08;28.20;33.40
48043;DHT22;33988;47.992;8.820;2023-10-13T16:15:46;28.10;33.50
48043;DHT22;33988;47.992;8.820;2023-10-13T16:18:17;28.10;33.80
48043;DHT22;33988;47.992;8.820;2023-10-13T16:20:49;28.10;34.00
48043;DHT22;33988;47.992;8.820;2023-10-13T16:23:17;28.00;34.10
48043;DHT22;33988;47.992;8.820;2023-10-13T16:25:44;28.00;34.40
48043;DHT22;33988;47.992;8.820;2023-10-13T16:28:14;27.90;34.50
48043;DHT22;33988;47.992;8.820;2023-10-13T16:30:41;27.90;34.70
48043;DHT22;33988;47.992;8.820;2023-10-13T16:33:12;27.80;34.90
48043;DHT22;33988;47.992;8.820;2023-10-13T16:35:42;27.80;35.10
48043;DHT22;33988;47.992;8.820;2023-10-13T16:38:13;27.70;35.20
48043;DHT22;33988;47.992;8.820;2023-10-13T16:40:40;27.60;35.30